Time;durP1;ratioP1;P1;durP2;ratioP2;P2;SDS_P1;SDS_P2;PMS_P1;PMS_P2;Temp;Humidity;BMP_temperature;BMP_pressure;BME280_temperature;BME280_humidity;BME280_pressure;Samples;Min_cycle;Max_cycle;Signal;HPM_P1;HPM_P2
2021/10/20 00:01:15;;;;;;;1.70;0.75;;;;;;;2.24;60.36;100212.06;5050300;28;20098;-54
2021/10/20 00:03:41;;;;;;;1.42;0.68;;;;;;;2.14;60.77;100216.88;5051160;28;20037;-56
2021/10/20 00:06:06;;;;;;;1.08;0.60;;;;;;;2.05;61.15;100227.81;5052698;28;20381;-54
2021/10/20 00:08:32;;;;;;;3.60;1.00;;;;;;;1.96;61.34;100229.00;5053324;28;20037;-54
2021/10/20 00:10:59;;;;;;;1.98;0.80;;;;;;;1.88;61.47;100228.47;5053703;28;20059;-57
2021/10/20 00:13:25;;;;;;;2.22;0.57;;;;;;;1.81;61.65;100243.66;5042241;28;20075;-54
2021/10/20 00:15:51;;;;;;;3.67;0.82;;;;;;;1.79;61.88;100247.25;5034331;28;20125;-50
2021/10/20 00:18:16;;;;;;;0.90;0.70;;;;;;;1.76;61.96;100242.09;5032899;28;20491;-51
2021/10/20 00:20:42;;;;;;;1.55;1.00;;;;;;;1.78;62.18;100246.41;5033690;28;20064;-49
2021/10/20 00:23:09;;;;;;;2.70;1.05;;;;;;;1.81;62.34;100245.44;5034491;28;20044;-54
2021/10/20 00:25:35;;;;;;;1.10;0.82;;;;;;;1.89;61.81;100253.06;5034160;28;20032;-53
2021/10/20 00:28:01;;;;;;;2.15;0.80;;;;;;;1.90;62.88;100250.38;5036434;28;20029;-55
2021/10/20 00:30:26;;;;;;;2.42;0.98;;;;;;;1.93;62.59;100249.38;5053658;28;20103;-54
2021/10/20 00:32:52;;;;;;;1.88;1.10;;;;;;;1.99;62.76;100246.53;5052811;28;20114;-53
2021/10/20 00:35:17;;;;;;;1.88;0.98;;;;;;;2.08;62.41;100253.25;5053087;28;20623;-56
2021/10/20 00:37:43;;;;;;;2.10;1.30;;;;;;;2.15;62.40;100252.94;5051347;28;20033;-54
2021/10/20 00:40:10;;;;;;;3.53;1.27;;;;;;;2.23;62.14;100260.56;5051244;28;20032;-51
2021/10/20 00:42:35;;;;;;;2.80;1.10;;;;;;;2.22;62.56;100255.34;5034541;28;20051;-55
2021/10/20 00:45:03;;;;;;;3.88;1.40;;;;;;;2.34;62.38;100259.28;5032945;28;20112;-55
2021/10/20 00:47:29;;;;;;;1.52;1.15;;;;;;;2.35;62.27;100277.72;5033381;28;20113;-54
2021/10/20 00:49:55;;;;;;;2.13;1.10;;;;;;;2.35;62.36;100267.13;5032975;28;20124;-55
2021/10/20 00:52:23;;;;;;;1.77;1.10;;;;;;;2.35;62.48;100261.84;5032534;28;20130;-56
2021/10/20 00:54:50;;;;;;;2.47;1.23;;;;;;;2.33;62.32;100273.44;5031301;28;20033;-56
2021/10/20 00:57:16;;;;;;;2.97;1.00;;;;;;;2.26;62.43;100262.22;5033394;28;20056;-55
2021/10/20 00:59:42;;;;;;;1.48;1.30;;;;;;;2.24;62.22;100272.84;5046430;28;20485;-57
2021/10/20 01:02:08;;;;;;;1.65;0.88;;;;;;;2.24;62.63;100270.22;5052428;28;20100;-56
2021/10/20 01:04:35;;;;;;;1.15;0.82;;;;;;;2.27;62.55;100266.59;5052377;28;20155;-55
2021/10/20 01:07:01;;;;;;;1.70;0.80;;;;;;;2.36;61.93;100268.03;5053259;28;20102;-51
2021/10/20 01:09:27;;;;;;;1.42;1.10;;;;;;;2.25;62.13;100264.00;5033737;28;20029;-53
2021/10/20 01:11:54;;;;;;;1.20;0.88;;;;;;;2.20;61.96;100267.75;5032235;28;20539;-52
2021/10/20 01:14:20;;;;;;;2.47;0.80;;;;;;;2.04;62.22;100252.50;5032217;28;20505;-55
2021/10/20 01:16:46;;;;;;;1.00;0.90;;;;;;;1.83;62.08;100233.06;5032875;28;20792;-54
2021/10/20 01:19:14;;;;;;;1.17;0.98;;;;;;;1.94;62.29;100264.34;5032393;28;20041;-55
2021/10/20 01:21:41;;;;;;;2.50;0.95;;;;;;;1.82;62.18;100269.16;5031106;28;20111;-52
2021/10/20 01:24:07;;;;;;;1.90;1.05;;;;;;;1.55;62.48;100229.66;5031784;28;20457;-52
2021/10/20 01:26:34;;;;;;;1.05;0.80;;;;;;;1.64;62.30;100267.19;5032457;28;20034;-56
2021/10/20 01:28:59;;;;;;;1.60;1.08;;;;;;;1.58;62.98;100263.84;5032844;28;20030;-54
2021/10/20 01:31:25;;;;;;;1.15;0.77;;;;;;;1.52;62.79;100261.44;5030941;28;20098;-55
2021/10/20 01:33:50;;;;;;;1.77;1.10;;;;;;;1.44;63.33;100268.75;5031736;28;20029;-52
2021/10/20 01:36:16;;;;;;;1.55;0.85;;;;;;;1.38;63.75;100266.34;5045682;28;20146;-57
2021/10/20 01:38:41;;;;;;;1.65;0.90;;;;;;;1.33;63.70;100265.66;5035762;28;20037;-49
2021/10/20 01:41:07;;;;;;;2.45;0.80;;;;;;;1.27;63.56;100269.34;5030209;28;20028;-50
2021/10/20 01:43:47;;;;;;;2.80;1.30;;;;;;;1.23;63.51;100270.38;5032207;28;20045;-52
2021/10/20 01:46:16;;;;;;;1.55;0.88;;;;;;;1.11;64.29;100276.94;5032233;28;20048;-51
2021/10/20 01:48:41;;;;;;;2.00;1.25;;;;;;;1.00;64.12;100270.25;5031308;28;20029;-50
2021/10/20 01:51:07;;;;;;;0.90;0.80;;;;;;;0.96;64.61;100265.97;5035398;28;20091;-51
2021/10/20 01:53:33;;;;;;;1.52;0.85;;;;;;;0.94;64.32;100266.97;5039716;28;20061;-54
2021/10/20 01:55:58;;;;;;;1.00;0.82;;;;;;;0.91;64.59;100269.72;5032072;28;20052;-51
2021/10/20 01:58:24;;;;;;;1.52;1.05;;;;;;;0.66;64.50;100239.75;5031218;28;20425;-53
2021/10/20 02:00:49;;;;;;;2.00;0.88;;;;;;;0.80;64.54;100273.53;5031285;28;20025;-55
2021/10/20 02:03:15;;;;;;;1.60;0.85;;;;;;;0.53;64.49;100234.00;5030251;28;20033;-51
2021/10/20 02:05:40;;;;;;;1.33;0.88;;;;;;;0.69;64.81;100266.00;5031130;28;20060;-51
2021/10/20 02:08:06;;;;;;;3.70;0.90;;;;;;;0.69;64.73;100271.25;5031565;28;20052;-53
2021/10/20 02:10:31;;;;;;;2.17;1.05;;;;;;;0.60;65.09;100263.66;5030500;28;20026;-52
2021/10/20 02:12:57;;;;;;;3.72;0.90;;;;;;;0.61;64.93;100273.28;5031960;28;20045;-53
2021/10/20 02:15:22;;;;;;;3.00;1.00;;;;;;;0.55;65.59;100268.22;5031737;28;20072;-53
2021/10/20 02:17:48;;;;;;;1.90;1.00;;;;;;;0.74;65.94;100275.53;5031077;28;20030;-56
2021/10/20 02:20:14;;;;;;;1.98;1.35;;;;;;;0.91;65.44;100283.72;5031071;28;20069;-51
2021/10/20 02:22:43;;;;;;;2.45;1.33;;;;;;;1.03;64.85;100279.81;5031038;28;20068;-50
2021/10/20 02:25:10;;;;;;;3.50;1.27;;;;;;;0.96;64.94;100273.88;5046788;28;20071;-52
2021/10/20 02:27:36;;;;;;;1.75;0.95;;;;;;;0.91;64.54;100273.19;5050948;28;20043;-54
2021/10/20 02:30:03;;;;;;;1.48;1.00;;;;;;;0.82;65.18;100266.44;5049185;28;20110;-49
2021/10/20 02:32:29;;;;;;;2.75;0.90;;;;;;;0.60;65.08;100245.22;5050844;28;20489;-55
2021/10/20 02:34:54;;;;;;;1.20;1.00;;;;;;;0.71;65.33;100279.97;5048142;28;20035;-54
2021/10/20 02:37:20;;;;;;;1.30;1.10;;;;;;;0.60;65.78;100276.84;5048530;28;20108;-57
2021/10/20 02:39:45;;;;;;;1.92;1.10;;;;;;;0.30;65.65;100237.41;5050711;28;20031;-54
2021/10/20 02:42:11;;;;;;;2.03;1.17;;;;;;;0.49;66.07;100284.22;5051110;28;20067;-55
2021/10/20 02:44:36;;;;;;;2.40;1.02;;;;;;;0.40;66.34;100291.50;5049041;28;20504;-57
2021/10/20 02:47:02;;;;;;;2.95;0.98;;;;;;;0.35;66.08;100298.69;5050875;28;20104;-56
2021/10/20 02:49:27;;;;;;;1.90;1.00;;;;;;;0.27;66.57;100292.81;5050334;28;20083;-52
2021/10/20 02:51:53;;;;;;;2.15;1.10;;;;;;;0.27;66.33;100309.44;5049030;28;20033;-56
2021/10/20 02:54:19;;;;;;;2.30;1.23;;;;;;;0.26;66.72;100315.63;5050765;28;20044;-56
2021/10/20 02:56:46;;;;;;;2.13;1.10;;;;;;;0.30;67.01;100321.69;5031062;28;20033;-58
2021/10/20 02:59:11;;;;;;;2.28;1.25;;;;;;;0.39;67.00;100324.03;5030303;28;20080;-56
2021/10/20 03:01:37;;;;;;;3.78;1.73;;;;;;;0.51;66.62;100333.31;5030731;28;20026;-55
2021/10/20 03:04:03;;;;;;;2.60;1.40;;;;;;;0.61;66.78;100341.81;5032043;28;20067;-55
2021/10/20 03:06:29;;;;;;;5.25;1.50;;;;;;;0.69;66.65;100334.50;5029764;28;20469;-52
2021/10/20 03:08:54;;;;;;;4.72;1.50;;;;;;;0.76;66.01;100351.00;5029174;28;20037;-56
2021/10/20 03:11:19;;;;;;;2.28;1.75;;;;;;;0.80;65.71;100335.97;5031079;28;20045;-56
2021/10/20 03:13:45;;;;;;;2.42;1.48;;;;;;;0.77;65.42;100344.81;5031148;28;20052;-56
2021/10/20 03:16:10;;;;;;;2.30;1.40;;;;;;;0.81;65.37;100349.06;5032504;28;20099;-53
2021/10/20 03:18:36;;;;;;;3.00;2.03;;;;;;;0.85;65.14;100350.72;5029409;28;20397;-54
2021/10/20 03:21:01;;;;;;;2.95;1.52;;;;;;;0.89;64.92;100348.84;5030920;28;20036;-55
2021/10/20 03:23:27;;;;;;;2.40;1.63;;;;;;;1.02;64.84;100346.66;5030900;28;20189;-54
2021/10/20 03:25:52;;;;;;;2.60;1.70;;;;;;;1.06;63.89;100343.00;5030705;28;20030;-54
2021/10/20 03:28:18;;;;;;;3.75;1.50;;;;;;;1.13;63.81;100346.31;5032140;28;20077;-55
2021/10/20 03:30:43;;;;;;;4.00;1.88;;;;;;;1.14;63.69;100341.00;5033974;28;20053;-54
2021/10/20 03:33:09;;;;;;;3.42;1.83;;;;;;;1.34;62.86;100363.22;5034602;28;20033;-52
2021/10/20 03:35:34;;;;;;;2.67;1.67;;;;;;;1.47;62.79;100347.84;5034368;28;20036;-58
2021/10/20 03:38:00;;;;;;;2.10;1.70;;;;;;;1.58;62.25;100355.38;5035310;28;20048;-56
2021/10/20 03:40:25;;;;;;;3.05;1.98;;;;;;;1.63;62.23;100352.56;5033619;28;20033;-55
2021/10/20 03:42:51;;;;;;;3.15;1.77;;;;;;;1.63;61.93;100336.72;5034054;28;20057;-57
2021/10/20 03:45:16;;;;;;;3.13;1.83;;;;;;;1.64;62.56;100351.63;5034021;28;20029;-54
2021/10/20 03:47:43;;;;;;;5.10;1.90;;;;;;;1.74;61.91;100355.69;5039875;28;20025;-57
2021/10/20 03:50:10;;;;;;;3.28;1.95;;;;;;;1.50;61.69;100318.69;5054681;28;20044;-53
2021/10/20 03:52:35;;;;;;;3.38;1.90;;;;;;;1.70;62.03;100352.28;5050814;28;20021;-57
2021/10/20 03:55:05;;;;;;;2.28;1.73;;;;;;;1.72;61.78;100350.47;5053260;28;20530;-53
2021/10/20 03:57:35;;;;;;;2.90;1.50;;;;;;;1.87;61.53;100364.03;5053120;28;20075;-55
2021/10/20 04:00:02;;;;;;;2.20;1.50;;;;;;;1.91;61.36;100357.72;5053771;28;20041;-54
2021/10/20 04:02:28;;;;;;;3.28;1.23;;;;;;;1.94;61.00;100360.25;5053421;28;20032;-54
2021/10/20 04:04:53;;;;;;;2.83;1.10;;;;;;;1.94;59.79;100367.34;5052080;28;20104;-53
2021/10/20 04:07:19;;;;;;;2.28;0.90;;;;;;;1.84;59.88;100353.59;5053253;28;20057;-53
2021/10/20 04:09:44;;;;;;;2.25;1.20;;;;;;;1.79;60.10;100359.03;5051823;28;20032;-53
2021/10/20 04:12:10;;;;;;;1.60;1.08;;;;;;;1.67;59.82;100354.16;5053126;28;20204;-54
2021/10/20 04:14:35;;;;;;;1.13;0.80;;;;;;;1.67;59.95;100356.81;5053735;28;20489;-58
2021/10/20 04:17:01;;;;;;;1.80;0.90;;;;;;;1.70;59.86;100360.22;5051976;28;20112;-53
2021/10/20 04:19:26;;;;;;;1.23;0.80;;;;;;;1.41;59.78;100317.22;5051560;28;20025;-58
2021/10/20 04:21:52;;;;;;;2.00;0.85;;;;;;;1.65;60.08;100363.91;5053071;28;20934;-56
2021/10/20 04:24:17;;;;;;;1.30;0.90;;;;;;;1.55;59.69;100345.78;5053516;28;20043;-56
2021/10/20 04:26:43;;;;;;;3.72;1.02;;;;;;;1.66;59.51;100363.00;5053376;28;20035;-55
2021/10/20 04:29:08;;;;;;;3.08;1.00;;;;;;;1.64;59.41;100356.91;5051641;28;20104;-55
2021/10/20 04:31:34;;;;;;;1.40;1.05;;;;;;;1.64;59.33;100351.63;5034616;28;20033;-54
2021/10/20 04:33:59;;;;;;;1.50;0.90;;;;;;;1.57;59.71;100349.22;5031354;28;20425;-54
2021/10/20 04:36:24;;;;;;;2.40;1.20;;;;;;;1.48;59.42;100352.19;5032067;28;20397;-53
2021/10/20 04:38:50;;;;;;;2.05;1.00;;;;;;;1.39;59.85;100355.13;5033564;28;20083;-56
2021/10/20 04:41:16;;;;;;;1.42;1.00;;;;;;;1.49;59.77;100356.56;5045367;28;20059;-56
2021/10/20 04:43:41;;;;;;;1.63;1.10;;;;;;;1.89;58.69;100354.28;5051164;28;20024;-58
2021/10/20 04:46:06;;;;;;;1.98;0.85;;;;;;;2.08;58.36;100353.63;5053121;28;20048;-58
2021/10/20 04:48:32;;;;;;;1.88;0.88;;;;;;;2.17;58.20;100352.38;5053263;28;20327;-52
2021/10/20 04:50:58;;;;;;;2.45;0.93;;;;;;;2.19;57.70;100353.22;5046156;28;20056;-55
2021/10/20 04:53:23;;;;;;;3.72;1.20;;;;;;;2.22;57.50;100353.09;5032485;28;20121;-57
2021/10/20 04:55:49;;;;;;;2.67;0.90;;;;;;;2.21;57.87;100351.38;5032445;28;20033;-55
2021/10/20 04:58:14;;;;;;;3.92;1.35;;;;;;;2.17;58.41;100353.28;5032978;28;20025;-53
2021/10/20 05:00:40;;;;;;;2.08;1.48;;;;;;;2.23;58.31;100357.47;5035401;28;20025;-56
2021/10/20 05:03:05;;;;;;;2.25;1.33;;;;;;;2.25;57.53;100350.34;5039010;28;20041;-56
2021/10/20 05:05:30;;;;;;;1.48;1.00;;;;;;;2.63;56.86;100345.34;5040321;28;20028;-56
2021/10/20 05:07:58;;;;;;;1.67;1.08;;;;;;;4.52;52.78;100340.84;5042024;28;20104;-57
2021/10/20 05:10:26;;;;;;;3.08;1.33;;;;;;;7.03;46.14;100329.66;5039559;28;20025;-56
2021/10/20 05:12:52;;;;;;;4.75;1.00;;;;;;;9.38;40.98;100324.03;5040628;28;20045;-53
2021/10/20 05:15:18;;;;;;;4.22;0.88;;;;;;;11.67;36.31;100327.28;5040558;28;20481;-56
2021/10/20 05:17:44;;;;;;;1.60;0.95;;;;;;;13.55;32.36;100323.00;5040727;28;20035;-54
2021/10/20 05:20:12;;;;;;;3.72;0.95;;;;;;;15.13;30.10;100329.00;5041887;28;20021;-55
2021/10/20 05:22:39;;;;;;;2.45;1.00;;;;;;;15.59;28.75;100324.72;5039861;28;20384;-55
2021/10/20 05:25:07;;;;;;;2.25;1.15;;;;;;;15.17;29.50;100327.72;5042687;28;20110;-52
2021/10/20 05:27:34;;;;;;;2.47;1.08;;;;;;;14.65;29.54;100334.13;5041457;28;20057;-55
2021/10/20 05:30:00;;;;;;;1.70;1.00;;;;;;;15.31;28.79;100330.00;5041988;28;20025;-57
2021/10/20 05:32:27;;;;;;;1.63;1.10;;;;;;;17.27;25.84;100323.97;5040659;28;20149;-52
2021/10/20 05:34:53;;;;;;;2.17;1.10;;;;;;;19.01;23.44;100333.91;5043366;28;20079;-50
2021/10/20 05:37:19;;;;;;;2.45;1.30;;;;;;;20.40;21.72;100321.41;5050820;28;20041;-56
2021/10/20 05:39:47;;;;;;;3.80;1.30;;;;;;;21.49;20.01;100315.97;5051872;28;20103;-56
2021/10/20 05:42:12;;;;;;;2.08;1.13;;;;;;;22.31;18.54;100326.25;5032362;28;20030;-58
2021/10/20 05:44:38;;;;;;;2.33;1.20;;;;;;;23.08;17.59;100324.88;5032271;28;20036;-54
2021/10/20 05:47:03;;;;;;;4.97;1.23;;;;;;;23.82;17.36;100330.19;5034570;28;20045;-54
2021/10/20 05:49:29;;;;;;;2.83;1.25;;;;;;;24.45;16.37;100323.84;5038520;28;20112;-56
2021/10/20 05:51:55;;;;;;;3.65;1.40;;;;;;;25.01;15.71;100332.91;5036550;28;20025;-57
2021/10/20 05:54:20;;;;;;;3.55;1.55;;;;;;;25.58;14.99;100320.78;5031308;28;20123;-56
2021/10/20 05:56:45;;;;;;;2.42;1.83;;;;;;;26.15;14.65;100326.63;5032418;28;20022;-55
2021/10/20 05:59:11;;;;;;;2.63;2.08;;;;;;;26.73;13.56;100286.50;5032080;28;20500;-53
2021/10/20 06:01:36;;;;;;;3.45;1.50;;;;;;;27.57;13.11;100321.28;5032491;28;20125;-53
2021/10/20 06:04:03;;;;;;;3.85;1.80;;;;;;;27.06;13.22;100318.47;5031042;28;20029;-49
2021/10/20 06:06:29;;;;;;;6.03;1.90;;;;;;;26.55;14.19;100320.19;5031905;28;20057;-56
2021/10/20 06:08:55;;;;;;;3.90;1.70;;;;;;;27.13;13.38;100303.84;5032582;28;20057;-58
2021/10/20 06:11:21;;;;;;;3.50;2.13;;;;;;;26.69;13.45;100331.94;5031158;28;20136;-52
2021/10/20 06:13:47;;;;;;;4.47;1.65;;;;;;;26.55;13.68;100328.41;5031970;28;20060;-57
2021/10/20 06:16:12;;;;;;;3.92;1.73;;;;;;;24.91;14.30;100321.53;5032028;28;20041;-54
2021/10/20 06:18:38;;;;;;;3.63;1.60;;;;;;;22.83;16.34;100315.38;5030925;28;20052;-53
2021/10/20 06:21:04;;;;;;;3.30;1.40;;;;;;;21.65;17.85;100334.06;5032055;28;20025;-55
2021/10/20 06:23:30;;;;;;;2.90;1.73;;;;;;;21.79;17.69;100324.22;5032453;28;20037;-56
2021/10/20 06:25:56;;;;;;;2.65;1.20;;;;;;;23.45;16.18;100324.84;5031253;28;20076;-55
2021/10/20 06:28:21;;;;;;;2.53;1.55;;;;;;;24.12;15.42;100324.53;5030874;28;20099;-56
2021/10/20 06:30:46;;;;;;;2.78;1.48;;;;;;;21.85;17.48;100319.09;5031206;28;20100;-55
2021/10/20 06:33:12;;;;;;;4.97;1.92;;;;;;;18.86;20.40;100300.31;5033402;28;20105;-54
2021/10/20 06:35:37;;;;;;;1.45;1.20;;;;;;;16.71;23.36;100324.03;5051084;28;20041;-56
2021/10/20 06:38:03;;;;;;;3.55;1.83;;;;;;;15.05;25.70;100313.50;5050861;28;20058;-53
2021/10/20 06:40:28;;;;;;;1.73;1.60;;;;;;;13.66;27.93;100314.03;5049346;28;20064;-55
2021/10/20 06:42:54;;;;;;;3.17;1.70;;;;;;;12.51;29.91;100322.59;5049764;28;20052;-56
2021/10/20 06:45:19;;;;;;;3.70;1.23;;;;;;;11.63;31.03;100317.78;5048167;28;20092;-57
2021/10/20 06:47:45;;;;;;;3.45;1.25;;;;;;;10.68;32.75;100322.16;5048182;28;20041;-58
2021/10/20 06:50:10;;;;;;;2.60;1.75;;;;;;;9.84;34.70;100330.69;5049425;28;20033;-54
2021/10/20 06:52:36;;;;;;;3.15;1.20;;;;;;;9.16;35.58;100321.91;5049794;28;20098;-57
2021/10/20 06:55:03;;;;;;;3.80;1.50;;;;;;;8.50;37.31;100311.94;5048098;28;20033;-56
2021/10/20 06:57:29;;;;;;;2.00;1.60;;;;;;;8.16;38.11;100322.91;5048999;28;20037;-54
2021/10/20 06:59:54;;;;;;;2.60;1.27;;;;;;;7.87;38.29;100306.91;5047228;28;20083;-52
2021/10/20 07:02:20;;;;;;;2.78;1.70;;;;;;;7.65;38.84;100317.16;5043091;28;20083;-58
2021/10/20 07:04:45;;;;;;;3.05;1.52;;;;;;;7.31;39.61;100312.06;5040258;28;20078;-58
2021/10/20 07:07:12;;;;;;;5.82;1.60;;;;;;;6.92;40.59;100311.63;5048047;28;20119;-57
2021/10/20 07:09:38;;;;;;;1.27;1.05;;;;;;;6.82;40.35;100321.09;5049401;28;20063;-56
2021/10/20 07:12:04;;;;;;;4.90;1.42;;;;;;;6.84;40.44;100311.22;5038334;28;20029;-57
2021/10/20 07:14:30;;;;;;;4.35;1.30;;;;;;;6.69;40.90;100311.13;5029734;28;20044;-53
2021/10/20 07:16:58;;;;;;;2.20;1.52;;;;;;;6.52;41.73;100311.25;5029283;28;20401;-55
2021/10/20 07:19:24;;;;;;;4.55;1.98;;;;;;;6.35;42.28;100326.34;5029114;28;20025;-56
2021/10/20 07:21:49;;;;;;;2.13;1.38;;;;;;;6.15;42.17;100319.47;5031909;28;20132;-57
2021/10/20 07:24:15;;;;;;;2.20;1.50;;;;;;;5.97;42.98;100306.19;5032702;28;20119;-55
2021/10/20 07:26:40;;;;;;;3.17;1.80;;;;;;;5.86;43.57;100295.25;5028851;28;20021;-56
2021/10/20 07:29:06;;;;;;;2.50;1.60;;;;;;;5.76;43.64;100292.22;5032857;28;20037;-55
2021/10/20 07:31:31;;;;;;;4.68;1.60;;;;;;;5.62;43.92;100266.38;5038049;28;20029;-60
2021/10/20 07:33:59;;;;;;;6.05;1.85;;;;;;;5.64;44.14;100263.66;5036461;28;20025;-55
2021/10/20 07:36:24;;;;;;;6.32;2.08;;;;;;;5.90;44.31;100291.47;5037176;28;20469;-57
2021/10/20 07:38:50;;;;;;;4.45;2.13;;;;;;;6.02;44.82;100285.56;5035897;28;20033;-54
2021/10/20 07:41:16;;;;;;;6.03;2.75;;;;;;;6.22;44.09;100293.38;5036353;28;20051;-56
2021/10/20 07:43:42;;;;;;;3.53;2.40;;;;;;;6.38;42.97;100293.38;5038735;28;20492;-58
2021/10/20 07:46:07;;;;;;;4.70;2.33;;;;;;;6.12;43.42;100255.78;5035919;28;20025;-59
2021/10/20 07:48:32;;;;;;;4.15;1.98;;;;;;;6.44;42.41;100287.75;5034444;28;20488;-59
2021/10/20 07:50:58;;;;;;;2.50;2.30;;;;;;;6.50;42.71;100283.84;5038531;28;20063;-57
2021/10/20 07:53:23;;;;;;;4.22;2.38;;;;;;;6.55;42.84;100271.19;5043274;28;20029;-60
2021/10/20 07:55:49;;;;;;;5.53;2.30;;;;;;;6.71;42.29;100272.00;5058323;28;20036;-59
2021/10/20 07:58:14;;;;;;;4.72;2.70;;;;;;;6.77;42.24;100249.50;5061426;28;20047;-61
2021/10/20 08:00:40;;;;;;;6.00;2.90;;;;;;;7.23;42.20;100279.69;5050281;28;20369;-60
2021/10/20 08:03:05;;;;;;;6.18;2.47;;;;;;;7.56;41.38;100275.94;5038785;28;20029;-57
2021/10/20 08:05:31;;;;;;;5.72;2.60;;;;;;;7.86;40.16;100267.88;5063708;28;20436;-58
2021/10/20 08:07:58;;;;;;;2.42;2.22;;;;;;;8.14;39.15;100263.47;5048934;28;20116;-60
2021/10/20 08:10:26;;;;;;;9.60;2.35;;;;;;;8.43;39.38;100254.56;5058682;28;20465;-58
2021/10/20 08:12:54;;;;;;;4.82;2.78;;;;;;;8.67;38.44;100264.63;5054885;28;20055;-57
2021/10/20 08:15:20;;;;;;;5.50;2.20;;;;;;;8.75;38.13;100260.50;5063349;28;20190;-57
2021/10/20 08:17:46;;;;;;;4.65;2.40;;;;;;;8.66;37.38;100250.41;5040335;28;20037;-57
2021/10/20 08:20:16;;;;;;;4.30;2.38;;;;;;;8.31;38.73;100256.22;5049355;28;20111;-57
2021/10/20 08:22:42;;;;;;;3.55;2.30;;;;;;;7.85;39.14;100254.66;5060120;28;20029;-58
2021/10/20 08:25:09;;;;;;;3.10;2.25;;;;;;;7.39;39.72;100256.53;5065828;28;20407;-65
2021/10/20 08:27:35;;;;;;;3.70;2.35;;;;;;;6.83;40.71;100250.97;5054384;28;20461;-60
2021/10/20 08:30:01;;;;;;;3.50;2.20;;;;;;;6.39;41.68;100226.81;5056826;28;20119;-60
2021/10/20 08:32:26;;;;;;;3.60;2.22;;;;;;;6.30;41.91;100227.34;5061426;28;20112;-62
2021/10/20 08:34:52;;;;;;;3.50;2.05;;;;;;;6.43;42.08;100225.69;5063887;28;20036;-62
2021/10/20 08:37:18;;;;;;;3.42;1.95;;;;;;;6.56;41.72;100228.50;5056646;28;20036;-62
2021/10/20 08:39:45;;;;;;;2.28;1.90;;;;;;;6.62;41.63;100221.97;5030086;28;20039;-66
2021/10/20 08:42:11;;;;;;;2.97;2.20;;;;;;;6.58;41.18;100234.59;5045828;28;20087;-61
2021/10/20 08:44:37;;;;;;;8.13;2.00;;;;;;;6.60;41.04;100223.88;5065167;28;20064;-63
2021/10/20 08:47:03;;;;;;;3.00;1.75;;;;;;;6.59;40.76;100222.16;5052740;28;20131;-61
2021/10/20 08:49:30;;;;;;;1.92;1.60;;;;;;;6.53;41.33;100210.06;5048671;28;20037;-60
2021/10/20 08:51:55;;;;;;;3.25;1.83;;;;;;;6.58;41.11;100212.47;5059123;28;20036;-60
2021/10/20 08:54:21;;;;;;;3.65;1.80;;;;;;;6.56;41.15;100204.56;5049471;28;20033;-59
2021/10/20 08:56:47;;;;;;;5.18;1.65;;;;;;;6.51;40.88;100211.09;5060350;28;20025;-58
2021/10/20 08:59:13;;;;;;;3.20;1.50;;;;;;;6.27;41.29;100196.47;5045437;28;20033;-63
2021/10/20 09:01:39;;;;;;;3.53;1.70;;;;;;;6.17;41.73;100209.41;5061931;28;20028;-64
2021/10/20 09:04:06;;;;;;;5.95;2.03;;;;;;;6.13;42.44;100213.19;5042319;28;20652;-60
2021/10/20 09:06:31;;;;;;;2.47;1.70;;;;;;;6.06;42.09;100211.81;5052448;28;20067;-55
2021/10/20 09:09:02;;;;;;;2.33;1.30;;;;;;;6.06;41.75;100210.94;5057994;28;20092;-54
2021/10/20 09:11:34;;;;;;;5.43;2.00;;;;;;;5.88;42.48;100211.88;5043354;28;20041;-57
2021/10/20 09:14:05;;;;;;;2.70;1.92;;;;;;;5.81;42.73;100218.47;5065202;28;20053;-62
2021/10/20 09:16:32;;;;;;;2.28;1.60;;;;;;;5.76;42.98;100199.22;5054678;28;20048;-60
2021/10/20 09:18:59;;;;;;;4.72;1.85;;;;;;;5.74;43.43;100193.16;5058186;28;20033;-62
2021/10/20 09:21:26;;;;;;;4.38;1.98;;;;;;;5.93;42.98;100202.78;5047175;28;20052;-60
2021/10/20 09:23:52;;;;;;;2.00;1.65;;;;;;;5.83;42.76;100162.56;5059685;28;20024;-63
2021/10/20 09:26:18;;;;;;;4.57;1.75;;;;;;;5.81;42.59;100136.09;5058526;28;20078;-63
2021/10/20 09:28:43;;;;;;;2.60;1.60;;;;;;;6.33;42.74;100200.56;5054975;28;20032;-62
2021/10/20 09:31:10;;;;;;;3.03;1.55;;;;;;;6.56;41.81;100195.75;5055679;28;20108;-62
2021/10/20 09:33:41;;;;;;;2.17;1.45;;;;;;;6.78;41.09;100183.84;5067174;28;20103;-58
2021/10/20 09:36:09;;;;;;;2.35;1.65;;;;;;;6.89;40.72;100186.72;5050629;28;20362;-60
2021/10/20 09:38:40;;;;;;;4.18;1.73;;;;;;;6.88;40.65;100179.69;5061771;28;20476;-58
2021/10/20 09:41:08;;;;;;;3.28;1.73;;;;;;;6.80;40.65;100182.78;5056101;28;20060;-60
2021/10/20 09:43:40;;;;;;;3.85;1.60;;;;;;;6.74;41.10;100176.00;5067358;28;20035;-57
2021/10/20 09:46:05;;;;;;;3.50;1.65;;;;;;;6.53;41.40;100156.03;5033472;28;20042;-65
2021/10/20 09:48:31;;;;;;;2.42;2.00;;;;;;;6.49;41.56;100157.13;5046293;28;20029;-64
2021/10/20 09:51:08;;;;;;;3.90;1.90;;;;;;;6.55;41.92;100162.09;5032537;28;20025;-64
2021/10/20 09:53:39;;;;;;;3.40;1.60;;;;;;;6.37;41.21;100116.13;5045968;28;20043;-64
2021/10/20 09:56:23;;;;;;;1.58;1.38;;;;;;;6.74;41.18;100135.25;5047909;28;20461;-62
2021/10/20 09:58:50;;;;;;;1.83;1.40;;;;;;;6.61;40.93;100100.53;5045235;28;20056;-66
2021/10/20 10:01:24;;;;;;;7.93;2.83;;;;;;;7.11;40.65;100134.84;5044985;28;20032;-65
2021/10/20 10:03:51;;;;;;;2.70;2.10;;;;;;;7.22;40.05;100124.38;5059710;28;20761;-57
2021/10/20 10:06:17;;;;;;;5.63;1.77;;;;;;;7.18;39.47;100085.56;5065227;28;20028;-62
2021/10/20 10:08:44;;;;;;;2.33;1.58;;;;;;;7.38;38.97;100083.47;5047645;28;20040;-64
2021/10/20 10:11:09;;;;;;;3.25;1.45;;;;;;;7.59;38.69;100090.09;5040721;28;20047;-62
2021/10/20 10:13:43;;;;;;;5.10;2.15;;;;;;;7.84;38.98;100093.00;5045859;28;20048;-61
2021/10/20 10:16:09;;;;;;;5.45;1.90;;;;;;;7.86;38.54;100102.59;5065664;28;20047;-62
2021/10/20 10:18:39;;;;;;;2.30;1.90;;;;;;;7.81;39.00;100096.72;5045134;28;20057;-63
2021/10/20 10:21:30;;;;;;;8.02;2.10;;;;;;;7.73;39.47;100093.69;5029489;28;20028;-59
2021/10/20 10:23:57;;;;;;;4.30;2.20;;;;;;;7.46;39.58;100094.47;5059252;28;20033;-60
2021/10/20 10:26:24;;;;;;;3.80;1.90;;;;;;;7.41;40.06;100085.94;5051454;28;20111;-65
2021/10/20 10:29:12;;;;;;;3.33;1.90;;;;;;;7.50;39.89;100068.50;5056378;28;20033;-62
2021/10/20 10:31:43;;;;;;;6.93;1.90;;;;;;;7.43;40.12;100074.25;5062394;28;20040;-63
2021/10/20 10:34:30;;;;;;;2.08;1.80;;;;;;;7.48;39.93;100065.97;5055963;28;20043;-62
2021/10/20 10:37:00;;;;;;;3.08;1.65;;;;;;;7.26;39.34;100048.69;5065351;28;20029;-64
2021/10/20 10:39:30;;;;;;;3.75;1.90;;;;;;;6.97;39.65;100008.75;5045171;28;20033;-62
2021/10/20 10:41:59;;;;;;;4.03;2.08;;;;;;;7.20;39.87;100038.38;5031886;28;20079;-62
2021/10/20 10:44:44;;;;;;;3.10;1.60;;;;;;;7.01;39.59;100009.41;5059866;28;20064;-57
2021/10/20 10:47:27;;;;;;;2.75;1.70;;;;;;;7.12;39.83;100041.56;5040405;28;20047;-66
2021/10/20 10:49:57;;;;;;;2.90;1.70;;;;;;;6.95;40.08;100042.59;5050256;28;20040;-70
2021/10/20 10:52:34;;;;;;;3.47;1.90;;;;;;;7.03;40.11;100053.63;5039106;28;20398;-67
2021/10/20 10:55:21;;;;;;;3.67;1.77;;;;;;;7.01;40.28;100055.53;5052540;28;20037;-64
2021/10/20 10:57:58;;;;;;;5.20;1.80;;;;;;;6.93;40.47;100060.47;5067688;28;20032;-62
2021/10/20 11:00:26;;;;;;;2.60;1.60;;;;;;;6.84;40.06;100039.75;5054785;28;20033;-67
2021/10/20 11:02:57;;;;;;;4.32;2.10;;;;;;;6.90;39.77;100044.69;5054136;28;20133;-62
2021/10/20 11:05:32;;;;;;;6.70;2.08;;;;;;;6.83;40.17;100035.38;5062225;28;20045;-69
2021/10/20 11:08:09;;;;;;;10.02;3.50;;;;;;;6.85;39.68;100042.31;5026402;28;20116;-62
2021/10/20 11:10:38;;;;;;;8.07;4.38;;;;;;;6.74;39.46;100028.81;5063797;28;20062;-62
2021/10/20 11:13:04;;;;;;;10.32;4.70;;;;;;;6.69;39.91;100029.09;5049984;28;20070;-63
2021/10/20 11:15:32;;;;;;;17.58;6.78;;;;;;;6.62;39.97;100030.41;5060878;28;20036;-64
2021/10/20 11:17:58;;;;;;;10.98;5.63;;;;;;;6.31;40.08;99989.72;5052017;28;20116;-60
2021/10/20 11:20:31;;;;;;;13.60;6.03;;;;;;;6.53;39.97;100036.31;5059645;28;20032;-65
2021/10/20 11:23:01;;;;;;;16.45;7.82;;;;;;;6.50;39.80;100024.03;5047144;28;20044;-60
2021/10/20 11:25:26;;;;;;;15.43;6.63;;;;;;;6.44;39.97;100022.59;5037912;28;20037;-59
2021/10/20 11:27:54;;;;;;;11.18;4.75;;;;;;;6.38;39.95;100011.47;5059596;28;20066;-59
2021/10/20 11:30:25;;;;;;;6.90;3.90;;;;;;;6.47;40.22;100021.56;5047848;28;20024;-63